Time;durP1;ratioP1;P1;durP2;ratioP2;P2;SDS_P1;SDS_P2;PMS_P1;PMS_P2;Temp;Humidity;BMP_temperature;BMP_pressure;BME280_temperature;BME280_humidity;BME280_pressure;Samples;Min_cycle;Max_cycle;Signal;HPM_P1;HPM_P2
2021/12/16 00:06:02;;;;;;;19.40;11.07;;;8.00;91.70;;;;;;4932444;29;20048;-45
2021/12/16 00:08:37;;;;;;;14.80;8.05;;;8.00;91.70;;;;;;4949378;29;20051;-43
2021/12/16 00:35:53;;;;;;;12.63;8.02;;;7.90;91.60;;;;;;4976699;28;20154;-43
2021/12/16 00:38:19;;;;;;;15.48;9.07;;;7.90;91.60;;;;;;4975408;28;20682;-44
2021/12/16 00:40:46;;;;;;;17.02;8.25;;;7.90;91.50;;;;;;5053825;28;20052;-46
2021/12/16 00:47:13;;;;;;;17.65;9.20;;;7.90;91.60;;;;;;5026948;28;20052;-47
2021/12/16 00:49:17;;;;;;;16.48;8.50;;;7.80;91.60;;;;;;5051490;28;20369;-46
2021/12/16 00:54:37;;;;;;;18.25;9.30;;;7.80;91.60;;;;;;5064796;28;20059;-47
2021/12/16 00:57:11;;;;;;;16.50;8.80;;;7.80;91.50;;;;;;5070625;28;20028;-43
2021/12/16 00:59:42;;;;;;;17.67;10.00;;;7.80;91.60;;;;;;5068930;28;20457;-49
2021/12/16 01:02:26;;;;;;;18.85;11.45;;;7.80;91.70;;;;;;5070311;28;20055;-43
2021/12/16 01:52:28;;;;;;;17.52;9.85;;;8.00;92.00;;;;;;5016227;28;20071;-43
2021/12/16 01:55:05;;;;;;;21.83;11.50;;;8.10;92.00;;;;;;5036318;28;20092;-46
2021/12/16 01:57:39;;;;;;;;;;;8.00;92.00;;;;;;5043165;28;20049;-43
2021/12/16 02:00:18;;;;;;;25.40;10.10;;;8.10;92.00;;;;;;5029554;28;20409;-43
2021/12/16 02:02:50;;;;;;;19.92;10.35;;;8.10;92.10;;;;;;5022908;28;20079;-46
2021/12/16 02:08:28;;;;;;;18.38;9.75;;;8.10;92.10;;;;;;5029638;28;20746;-45
2021/12/16 02:11:25;;;;;;;17.85;10.00;;;8.10;92.10;;;;;;5029864;28;20038;-46
2021/12/16 02:35:58;;;;;;;24.27;11.05;;;8.20;92.30;;;;;;5037300;28;20498;-47
2021/12/16 02:38:28;;;;;;;26.23;11.93;;;8.20;92.30;;;;;;5024770;28;20037;-44
2021/12/16 02:40:56;;;;;;;22.17;12.25;;;8.30;92.40;;;;;;5032222;28;20079;-44
2021/12/16 02:43:52;;;;;;;27.23;10.68;;;8.30;92.30;;;;;;5021831;28;20416;-47
2021/12/16 02:48:41;;;;;;;30.10;12.00;;;8.40;92.30;;;;;;5037313;28;20099;-43
2021/12/16 02:51:27;;;;;;;27.40;11.18;;;8.30;92.30;;;;;;5036062;28;20593;-43
2021/12/16 02:54:05;;;;;;;21.15;11.32;;;8.30;92.30;;;;;;5037204;28;20029;-46
2021/12/16 02:56:34;;;;;;;24.58;10.88;;;8.30;92.30;;;;;;5029406;28;20522;-43
2021/12/16 02:59:01;;;;;;;22.87;11.33;;;8.30;92.30;;;;;;5030369;28;20076;-42
2021/12/16 03:01:48;;;;;;;19.95;11.02;;;8.30;92.30;;;;;;5044503;28;20056;-45
2021/12/16 03:04:20;;;;;;;25.73;11.25;;;8.30;92.30;;;;;;5046880;28;20079;-43
2021/12/16 03:06:52;;;;;;;24.55;11.05;;;8.30;92.30;;;;;;5050396;28;20025;-46
2021/12/16 03:09:34;;;;;;;22.42;10.85;;;8.30;92.30;;;;;;5038562;28;20459;-44
2021/12/16 03:15:07;;;;;;;23.58;9.88;;;8.30;92.30;;;;;;5009327;28;20745;-43
2021/12/16 03:17:48;;;;;;;22.88;10.20;;;8.30;92.30;;;;;;5032917;28;20025;-44
2021/12/16 03:20:36;;;;;;;21.88;11.45;;;8.30;92.30;;;;;;5032540;28;20045;-43
2021/12/16 03:29:03;;;;;;;25.15;11.23;;;8.30;92.20;;;;;;5034565;28;20242;-46
2021/12/16 03:31:46;;;;;;;20.83;9.23;;;8.30;92.20;;;;;;5048062;28;20040;-44
2021/12/16 03:35:01;;;;;;;25.80;10.05;;;8.30;92.30;;;;;;5037658;28;20058;-45
2021/12/16 03:37:18;;;;;;;20.67;10.95;;;8.30;92.30;;;;;;5024315;28;20053;-48
2021/12/16 03:40:01;;;;;;;35.03;10.90;;;8.40;92.20;;;;;;5031049;28;20517;-44
2021/12/16 03:42:34;;;;;;;21.67;11.10;;;8.40;92.30;;;;;;5052165;28;20029;-46
2021/12/16 03:48:14;;;;;;;19.92;9.40;;;8.40;92.20;;;;;;5046959;28;20115;-43
2021/12/16 03:50:41;;;;;;;22.48;10.13;;;8.30;92.20;;;;;;5032283;28;20032;-45
2021/12/16 03:53:09;;;;;;;22.98;10.48;;;8.30;92.20;;;;;;5040266;28;20025;-44
2021/12/16 03:55:36;;;;;;;22.15;10.50;;;8.30;92.20;;;;;;5032067;28;20026;-46
2021/12/16 03:58:06;;;;;;;27.98;11.23;;;8.40;92.20;;;;;;5022499;28;20040;-45
2021/12/16 04:00:41;;;;;;;24.75;10.43;;;8.40;92.20;;;;;;5031969;28;20033;-44
2021/12/16 04:03:09;;;;;;;31.77;10.43;;;8.40;92.20;;;;;;5041510;28;20048;-43
2021/12/16 04:05:37;;;;;;;22.08;9.73;;;8.40;92.30;;;;;;5031859;28;20075;-48
2021/12/16 04:08:06;;;;;;;19.98;9.60;;;8.40;92.30;;;;;;5038693;28;20470;-46
2021/12/16 04:10:40;;;;;;;23.75;9.82;;;8.40;92.30;;;;;;5031824;28;20046;-44
2021/12/16 04:13:15;;;;;;;21.85;9.80;;;8.40;92.30;;;;;;5023755;28;20338;-48
2021/12/16 04:15:41;;;;;;;22.05;8.70;;;8.40;92.30;;;;;;5031739;28;20037;-44
2021/12/16 04:18:08;;;;;;;21.48;9.35;;;8.40;92.40;;;;;;5041389;28;20061;-48
2021/12/16 04:20:36;;;;;;;22.73;9.85;;;8.40;92.40;;;;;;5051488;28;20086;-44
2021/12/16 04:23:05;;;;;;;17.75;10.07;;;8.50;92.40;;;;;;5042406;28;20034;-44
2021/12/16 04:25:37;;;;;;;21.23;8.52;;;8.50;92.40;;;;;;5015219;28;20061;-42
2021/12/16 04:28:10;;;;;;;18.05;8.23;;;8.50;92.30;;;;;;5039434;28;20351;-46
2021/12/16 04:30:37;;;;;;;22.70;9.63;;;8.50;92.30;;;;;;5018392;28;20021;-48
2021/12/16 04:33:04;;;;;;;19.30;8.80;;;8.50;92.30;;;;;;5048749;28;20025;-44
2021/12/16 04:35:33;;;;;;;20.00;9.68;;;8.50;92.40;;;;;;5058783;28;20047;-43
2021/12/16 04:37:59;;;;;;;23.02;9.77;;;8.50;92.30;;;;;;5053170;28;20050;-48
2021/12/16 04:40:27;;;;;;;27.45;9.93;;;8.50;92.40;;;;;;5050976;28;20044;-49
2021/12/16 04:43:00;;;;;;;16.52;8.38;;;8.50;92.40;;;;;;5046899;28;20021;-45
2021/12/16 04:45:28;;;;;;;22.08;8.85;;;8.50;92.40;;;;;;5034114;28;20411;-43
2021/12/16 04:47:56;;;;;;;20.88;8.32;;;8.50;92.40;;;;;;5043336;28;20053;-43
2021/12/16 04:50:24;;;;;;;26.17;9.13;;;8.50;92.40;;;;;;5046112;28;20043;-43
2021/12/16 04:52:51;;;;;;;23.75;9.82;;;8.50;92.40;;;;;;5042089;28;20584;-48
2021/12/16 04:55:24;;;;;;;26.23;8.48;;;8.50;92.40;;;;;;5050972;28;20040;-45
2021/12/16 04:57:51;;;;;;;19.08;8.70;;;8.50;92.40;;;;;;5026824;28;20021;-44
2021/12/16 05:00:23;;;;;;;24.48;9.10;;;8.50;92.40;;;;;;5023147;28;20066;-44
2021/12/16 05:02:50;;;;;;;22.92;10.48;;;8.50;92.40;;;;;;4996807;28;20049;-44
2021/12/16 05:05:18;;;;;;;29.08;10.85;;;8.50;92.40;;;;;;5030748;28;20037;-43
2021/12/16 05:07:47;;;;;;;18.88;8.98;;;8.50;92.40;;;;;;5014167;28;20045;-43
2021/12/16 05:10:15;;;;;;;20.85;8.68;;;8.50;92.40;;;;;;5030668;28;20528;-43
2021/12/16 05:12:49;;;;;;;21.17;8.98;;;8.50;92.40;;;;;;5031196;28;20116;-44
2021/12/16 05:15:20;;;;;;;20.15;9.90;;;8.50;92.30;;;;;;5050286;28;20057;-44
2021/12/16 05:17:51;;;;;;;20.92;10.00;;;8.50;92.30;;;;;;5050485;28;20383;-47
2021/12/16 05:20:34;;;;;;;17.15;8.32;;;8.50;92.30;;;;;;5049731;28;20506;-44
2021/12/16 05:28:25;;;;;;;20.38;9.55;;;8.50;92.30;;;;;;5030113;28;20045;-45
2021/12/16 05:30:55;;;;;;;21.25;10.85;;;8.50;92.40;;;;;;5031239;28;20053;-44
2021/12/16 05:33:23;;;;;;;22.02;10.65;;;8.50;92.30;;;;;;5033485;28;20036;-44
2021/12/16 05:35:51;;;;;;;26.75;9.75;;;8.50;92.30;;;;;;5036908;28;20043;-46
2021/12/16 05:38:19;;;;;;;29.92;9.80;;;8.50;92.30;;;;;;5030908;28;20113;-47
2021/12/16 05:40:45;;;;;;;21.85;9.10;;;8.50;92.30;;;;;;5039785;28;20058;-46
2021/12/16 05:43:14;;;;;;;22.85;8.30;;;8.50;92.30;;;;;;5044891;28;20072;-44
2021/12/16 05:45:43;;;;;;;18.95;9.23;;;8.50;92.30;;;;;;5030097;28;20025;-45
2021/12/16 05:48:16;;;;;;;22.05;9.27;;;8.50;92.40;;;;;;5030964;28;20032;-44
2021/12/16 05:50:47;;;;;;;17.23;8.65;;;8.60;92.30;;;;;;5033546;28;20071;-46
2021/12/16 05:53:14;;;;;;;21.42;9.15;;;8.50;92.30;;;;;;5043339;28;20045;-48
2021/12/16 05:55:44;;;;;;;19.90;9.32;;;8.50;92.30;;;;;;5044915;28;20108;-44
2021/12/16 05:58:17;;;;;;;;;;;8.60;92.30;;;;;;5034843;28;20083;-46
2021/12/16 06:00:44;;;;;;;20.02;8.75;;;8.50;92.30;;;;;;5048184;28;20003;-45
2021/12/16 06:03:11;;;;;;;17.40;9.02;;;8.60;92.30;;;;;;5034918;28;20029;-46
2021/12/16 06:05:39;;;;;;;24.52;9.55;;;8.60;92.30;;;;;;5048069;28;20111;-45
2021/12/16 06:08:06;;;;;;;20.95;10.38;;;8.60;92.30;;;;;;5033358;28;20029;-44
2021/12/16 06:11:10;;;;;;;20.73;8.82;;;8.60;92.30;;;;;;5049278;28;20052;-45
2021/12/16 06:13:32;;;;;;;;;;;8.60;92.30;;;;;;5036079;28;20461;-46
2021/12/16 06:29:27;;;;;;;22.95;12.07;;;8.60;92.30;;;;;;5049643;28;20056;-43
2021/12/16 06:31:54;;;;;;;33.28;13.65;;;8.60;92.30;;;;;;5047362;28;20369;-44
2021/12/16 06:34:22;;;;;;;36.58;12.95;;;8.50;92.30;;;;;;5037022;28;20048;-46
2021/12/16 06:36:49;;;;;;;32.45;11.65;;;8.60;92.40;;;;;;5030506;28;20159;-44
2021/12/16 06:39:16;;;;;;;23.02;11.90;;;8.60;92.40;;;;;;5029386;28;20041;-44
2021/12/16 06:41:45;;;;;;;26.88;11.65;;;8.60;92.40;;;;;;5038860;28;20090;-44
2021/12/16 06:44:21;;;;;;;26.95;10.68;;;8.60;92.30;;;;;;5028831;28;20037;-45
2021/12/16 06:46:50;;;;;;;31.02;10.40;;;8.60;92.40;;;;;;5040878;28;20518;-48
2021/12/16 06:49:17;;;;;;;31.95;12.13;;;8.60;92.40;;;;;;5050427;28;20043;-46
2021/12/16 06:54:19;;;;;;;28.83;10.70;;;8.60;92.40;;;;;;5034845;28;20063;-45
2021/12/16 06:57:03;;;;;;;28.63;10.10;;;8.60;92.40;;;;;;5042163;28;20021;-44
2021/12/16 06:59:33;;;;;;;37.05;12.13;;;8.60;92.40;;;;;;5016090;28;20363;-44
2021/12/16 07:02:39;;;;;;;26.70;11.23;;;8.60;92.40;;;;;;5045138;28;20048;-48
2021/12/16 07:05:08;;;;;;;27.38;11.10;;;8.60;92.40;;;;;;5052460;28;20044;-44
2021/12/16 07:07:37;;;;;;;30.15;10.90;;;8.60;92.40;;;;;;5036916;28;20037;-44
2021/12/16 07:10:11;;;;;;;27.63;10.93;;;8.60;92.40;;;;;;5032892;28;20091;-44
2021/12/16 07:12:39;;;;;;;27.45;13.55;;;8.50;92.50;;;;;;5048084;28;20168;-44
2021/12/16 07:15:12;;;;;;;24.67;10.68;;;8.50;92.50;;;;;;5033063;28;20030;-44
2021/12/16 07:17:44;;;;;;;23.92;11.05;;;8.50;92.50;;;;;;5033880;28;20029;-44
2021/12/16 07:20:13;;;;;;;28.08;11.40;;;8.60;92.50;;;;;;5003180;28;20128;-46
2021/12/16 07:22:40;;;;;;;30.00;11.60;;;8.50;92.50;;;;;;5046934;28;20033;-44
2021/12/16 07:25:08;;;;;;;29.52;11.93;;;8.50;92.50;;;;;;5032291;28;20049;-44
2021/12/16 07:27:36;;;;;;;36.70;12.43;;;8.50;92.40;;;;;;5034520;28;20360;-45
2021/12/16 07:30:07;;;;;;;41.25;12.55;;;8.50;92.50;;;;;;5050661;28;20021;-46
2021/12/16 07:32:35;;;;;;;29.17;12.07;;;8.50;92.50;;;;;;5051929;28;20079;-46
2021/12/16 07:35:04;;;;;;;30.73;11.63;;;8.50;92.50;;;;;;5045818;28;20056;-45
2021/12/16 07:37:30;;;;;;;32.97;13.70;;;8.50;92.60;;;;;;5019888;28;20040;-44
2021/12/16 07:39:59;;;;;;;26.50;12.75;;;8.50;92.60;;;;;;5032175;28;20037;-46
2021/12/16 07:42:31;;;;;;;33.30;13.00;;;8.50;92.50;;;;;;5034948;28;20029;-46
2021/12/16 07:44:58;;;;;;;25.90;11.65;;;8.50;92.60;;;;;;5042889;28;20151;-45
2021/12/16 07:47:24;;;;;;;29.10;12.35;;;8.50;92.50;;;;;;5048358;28;20119;-45
2021/12/16 07:49:51;;;;;;;29.25;12.45;;;8.50;92.50;;;;;;5052284;28;20040;-44
2021/12/16 07:52:21;;;;;;;26.08;13.52;;;8.50;92.50;;;;;;5043612;28;20466;-44
2021/12/16 07:54:48;;;;;;;32.72;13.30;;;8.50;92.50;;;;;;5032007;28;20052;-43
2021/12/16 07:57:15;;;;;;;30.52;13.88;;;8.50;92.50;;;;;;5045535;28;20054;-43
2021/12/16 07:59:42;;;;;;;24.85;12.88;;;8.50;92.50;;;;;;5017069;28;20041;-45
2021/12/16 08:02:11;;;;;;;31.00;15.18;;;8.50;92.50;;;;;;5016596;28;20135;-44
2021/12/16 08:04:42;;;;;;;25.27;12.63;;;8.60;92.50;;;;;;5031925;28;20037;-45
2021/12/16 08:07:10;;;;;;;33.75;13.73;;;8.60;92.50;;;;;;5049935;28;20044;-47
2021/12/16 08:09:41;;;;;;;24.10;13.48;;;8.60;92.50;;;;;;5034909;28;20048;-46
2021/12/16 08:12:12;;;;;;;31.80;12.50;;;8.50;92.40;;;;;;5031883;28;20017;-47
2021/12/16 08:14:40;;;;;;;31.20;12.68;;;8.60;92.50;;;;;;5041339;28;20064;-44
2021/12/16 08:17:08;;;;;;;33.75;12.60;;;8.60;92.40;;;;;;5051660;28;20454;-45
2021/12/16 08:19:35;;;;;;;21.90;11.73;;;8.60;92.40;;;;;;5035048;28;20048;-49
2021/12/16 08:22:02;;;;;;;28.33;12.48;;;8.60;92.40;;;;;;5043296;28;20051;-47
2021/12/16 08:24:31;;;;;;;24.05;12.10;;;8.60;92.40;;;;;;5051269;28;20128;-46
2021/12/16 08:26:58;;;;;;;26.88;13.10;;;8.60;92.40;;;;;;5040665;28;20036;-46
2021/12/16 08:29:24;;;;;;;30.23;13.00;;;8.60;92.40;;;;;;5031382;28;20033;-46
2021/12/16 08:31:56;;;;;;;26.58;12.48;;;8.60;92.40;;;;;;5040422;28;20108;-49
2021/12/16 08:34:27;;;;;;;27.80;13.10;;;8.60;92.40;;;;;;5036342;28;20033;-44
2021/12/16 08:36:54;;;;;;;25.77;12.00;;;8.70;92.40;;;;;;5040059;28;20025;-44
2021/12/16 08:39:23;;;;;;;34.22;15.13;;;8.70;92.40;;;;;;5051409;28;20044;-47
2021/12/16 08:41:53;;;;;;;30.05;13.00;;;8.70;92.40;;;;;;5033655;28;20026;-44
2021/12/16 08:44:21;;;;;;;27.45;14.18;;;8.70;92.40;;;;;;5042790;28;20096;-43
2021/12/16 08:46:51;;;;;;;28.33;14.15;;;8.70;92.40;;;;;;5045719;28;20107;-44
2021/12/16 08:49:19;;;;;;;29.52;14.27;;;8.70;92.30;;;;;;5051001;28;20031;-44
2021/12/16 08:51:50;;;;;;;23.98;14.15;;;8.70;92.40;;;;;;5044617;28;20056;-45
2021/12/16 08:54:18;;;;;;;23.20;12.40;;;8.70;92.40;;;;;;5020379;28;20039;-48
2021/12/16 08:56:46;;;;;;;34.20;16.55;;;8.70;92.50;;;;;;5050805;28;20044;-46
2021/12/16 08:59:13;;;;;;;25.30;13.52;;;8.90;92.50;;;;;;5050932;28;20406;-48
2021/12/16 09:01:46;;;;;;;23.40;14.00;;;8.90;92.50;;;;;;5038182;28;20417;-46
2021/12/16 09:04:16;;;;;;;22.88;12.05;;;8.90;92.50;;;;;;5049399;28;20032;-46
2021/12/16 09:06:44;;;;;;;28.42;13.77;;;9.00;92.40;;;;;;5050059;28;20040;-48
2021/12/16 09:09:12;;;;;;;27.90;13.32;;;9.00;92.40;;;;;;5050011;28;20021;-43
2021/12/16 09:11:55;;;;;;;25.77;12.70;;;9.00;92.50;;;;;;5050612;28;20056;-46
2021/12/16 09:14:22;;;;;;;37.28;12.73;;;9.00;92.40;;;;;;5015257;28;20040;-44
2021/12/16 09:16:49;;;;;;;25.23;12.13;;;9.10;92.40;;;;;;5048079;28;20041;-46
2021/12/16 09:19:16;;;;;;;34.70;15.45;;;9.10;92.30;;;;;;5050230;28;20059;-49
2021/12/16 09:21:43;;;;;;;25.88;11.95;;;9.10;92.30;;;;;;5029878;28;20071;-48
2021/12/16 09:24:12;;;;;;;26.50;11.63;;;9.10;92.30;;;;;;5038810;28;20091;-47
2021/12/16 09:26:39;;;;;;;24.90;10.37;;;9.20;92.30;;;;;;5030483;28;20025;-46
2021/12/16 09:29:06;;;;;;;26.92;13.43;;;9.20;92.30;;;;;;5042365;28;20085;-44
2021/12/16 09:31:33;;;;;;;36.05;12.38;;;9.20;92.20;;;;;;5036151;28;20030;-44
2021/12/16 09:34:05;;;;;;;27.10;12.20;;;9.30;92.20;;;;;;5039723;28;20063;-45
2021/12/16 09:36:39;;;;;;;32.75;14.32;;;9.30;92.00;;;;;;5016435;28;20053;-45
2021/12/16 09:39:11;;;;;;;26.95;12.05;;;9.30;92.10;;;;;;5049098;28;20033;-49
2021/12/16 09:41:40;;;;;;;28.15;13.13;;;9.30;92.10;;;;;;5048306;28;20029;-45
2021/12/16 09:44:09;;;;;;;35.00;13.80;;;9.40;92.10;;;;;;5030927;28;20038;-46
2021/12/16 09:46:36;;;;;;;39.17;14.80;;;9.40;92.00;;;;;;5035619;28;20100;-43
2021/12/16 09:49:03;;;;;;;26.27;12.75;;;9.40;92.00;;;;;;5049752;28;20037;-44
2021/12/16 09:51:34;;;;;;;29.15;13.77;;;9.50;92.10;;;;;;5030696;28;20033;-44
2021/12/16 09:54:06;;;;;;;29.17;12.25;;;9.50;91.90;;;;;;5033704;28;20056;-46
2021/12/16 09:56:34;;;;;;;25.17;12.52;;;9.50;91.90;;;;;;5019423;28;20033;-47
2021/12/16 09:59:04;;;;;;;32.13;11.68;;;9.60;91.90;;;;;;5020283;28;20049;-46
2021/12/16 10:01:34;;;;;;;25.92;11.02;;;9.50;91.80;;;;;;5036153;28;20413;-44
2021/12/16 10:04:05;;;;;;;27.67;12.35;;;9.60;91.90;;;;;;5049742;28;20020;-46
2021/12/16 10:06:34;;;;;;;30.65;12.57;;;9.60;91.70;;;;;;5043316;28;20042;-48
2021/12/16 10:09:04;;;;;;;;;;;9.70;91.90;;;;;;5040850;28;20039;-46
2021/12/16 10:11:34;;;;;;;25.35;10.70;;;9.70;91.80;;;;;;5037730;28;19916;-44
2021/12/16 10:14:17;;;;;;;;;;;9.70;91.90;;;;;;5030326;28;20051;-46
2021/12/16 10:19:35;;;;;;;35.15;13.10;;;9.90;91.80;;;;;;5049750;28;20720;-47
2021/12/16 10:22:23;;;;;;;33.58;13.00;;;9.90;91.80;;;;;;5038950;28;20022;-46
2021/12/16 10:24:52;;;;;;;31.02;12.77;;;9.90;91.60;;;;;;5055124;28;20040;-45
2021/12/16 10:27:24;;;;;;;33.80;11.98;;;9.90;91.60;;;;;;5057201;28;20128;-45
2021/12/16 10:29:57;;;;;;;36.28;16.02;;;9.90;91.60;;;;;;5049432;28;20031;-46
2021/12/16 10:32:55;;;;;;;25.67;11.38;;;9.90;91.60;;;;;;5050608;28;20025;-47
2021/12/16 10:35:30;;;;;;;31.10;13.95;;;10.00;91.50;;;;;;5034762;28;20577;-46
2021/12/16 10:38:04;;;;;;;46.45;17.55;;;10.00;91.60;;;;;;5050134;28;20037;-45
2021/12/16 10:40:51;;;;;;;42.47;13.25;;;10.10;91.40;;;;;;5049171;28;20147;-45
2021/12/16 10:43:47;;;;;;;37.60;13.18;;;10.00;91.30;;;;;;5061805;28;20033;-46
2021/12/16 10:46:19;;;;;;;30.65;11.85;;;10.00;91.50;;;;;;5069028;28;20024;-48
2021/12/16 10:48:55;;;;;;;27.35;12.25;;;10.20;91.50;;;;;;5067728;28;20036;-45
2021/12/16 10:51:44;;;;;;;55.90;14.98;;;10.20;91.60;;;;;;5069285;28;20104;-46
2021/12/16 10:54:23;;;;;;;33.55;12.85;;;10.20;91.30;;;;;;5057803;28;20043;-48
2021/12/16 10:57:09;;;;;;;37.47;14.50;;;10.30;91.50;;;;;;5050557;28;20472;-48
2021/12/16 11:00:10;;;;;;;33.08;11.40;;;10.30;91.20;;;;;;5057267;28;20044;-49
2021/12/16 11:02:38;;;;;;;39.17;12.93;;;10.40;91.20;;;;;;5057699;28;20043;-45
2021/12/16 11:05:15;;;;;;;26.67;10.70;;;10.40;91.20;;;;;;5054507;28;20454;-49
2021/12/16 11:07:52;;;;;;;27.08;11.20;;;10.40;91.10;;;;;;5067768;28;20089;-49
2021/12/16 11:10:29;;;;;;;30.08;11.48;;;10.50;91.00;;;;;;5048801;28;20021;-44
2021/12/16 11:13:14;;;;;;;28.70;12.00;;;10.50;91.10;;;;;;5051394;28;20018;-46
2021/12/16 11:15:52;;;;;;;26.95;11.50;;;10.60;90.80;;;;;;5068115;28;20037;-47
2021/12/16 11:18:26;;;;;;;31.65;10.82;;;10.60;90.60;;;;;;5052930;28;20035;-48
2021/12/16 11:20:57;;;;;;;35.63;10.63;;;10.60;90.60;;;;;;5048579;28;20552;-48
2021/12/16 11:23:32;;;;;;;26.40;10.20;;;10.70;90.40;;;;;;5052790;28;20041;-45
2021/12/16 11:26:09;;;;;;;25.65;10.68;;;10.70;90.40;;;;;;5048587;28;20029;-50
2021/12/16 11:28:54;;;;;;;23.40;9.07;;;10.80;90.40;;;;;;5041393;28;20466;-48
2021/12/16 11:31:28;;;;;;;28.13;9.27;;;10.70;90.00;;;;;;5052242;28;20029;-49
2021/12/16 11:34:03;;;;;;;32.53;10.25;;;10.70;90.10;;;;;;5045377;28;20105;-47
2021/12/16 11:36:30;;;;;;;22.70;10.50;;;10.80;89.90;;;;;;5017814;28;20033;-46
2021/12/16 11:39:02;;;;;;;17.13;6.95;;;10.80;89.80;;;;;;5032460;28;20052;-48
2021/12/16 11:41:56;;;;;;;13.20;6.60;;;10.70;89.10;;;;;;5032260;28;20354;-47
2021/12/16 11:44:28;;;;;;;15.82;4.53;;;10.70;88.90;;;;;;5049335;28;20068;-47
2021/12/16 11:47:08;;;;;;;14.38;6.38;;;10.70;88.80;;;;;;5051938;28;20048;-45
2021/12/16 11:49:44;;;;;;;26.45;7.32;;;10.70;88.60;;;;;;5032722;28;20028;-45
2021/12/16 11:52:22;;;;;;;19.33;6.28;;;10.70;88.50;;;;;;5014493;28;20354;-49
2021/12/16 11:55:20;;;;;;;8.50;3.70;;;10.70;88.60;;;;;;5041872;28;20047;-51
2021/12/16 11:57:54;;;;;;;10.00;2.92;;;10.70;88.10;;;;;;5049917;28;20075;-45
2021/12/16 12:00:29;;;;;;;12.82;4.82;;;10.80;87.90;;;;;;5031679;28;20029;-46
2021/12/16 12:03:07;;;;;;;12.45;3.22;;;10.80;87.50;;;;;;5020127;28;20048;-47
2021/12/16 12:05:45;;;;;;;15.82;4.03;;;10.70;87.30;;;;;;5031887;28;20025;-45
2021/12/16 12:08:20;;;;;;;12.48;4.78;;;10.70;87.40;;;;;;5036450;28;20497;-45
2021/12/16 12:11:06;;;;;;;10.18;3.22;;;10.70;86.90;;;;;;5031930;28;20057;-48
2021/12/16 12:13:42;;;;;;;15.85;4.05;;;10.60;87.00;;;;;;5035903;28;20072;-44
2021/12/16 12:16:25;;;;;;;7.93;3.50;;;10.60;86.90;;;;;;5044746;28;20037;-49
2021/12/16 12:19:10;;;;;;;11.32;3.45;;;10.60;86.70;;;;;;5040820;28;20041;-47
2021/12/16 12:22:00;;;;;;;13.75;3.63;;;10.40;86.80;;;;;;5032640;28;20119;-47
2021/12/16 12:24:32;;;;;;;9.85;2.88;;;10.40;87.10;;;;;;5039372;28;20048;-45
2021/12/16 12:27:11;;;;;;;9.88;3.28;;;10.40;87.20;;;;;;5031535;28;20071;-45
2021/12/16 12:29:57;;;;;;;7.93;2.25;;;10.30;87.10;;;;;;5035880;28;20532;-50
2021/12/16 12:32:26;;;;;;;10.43;3.33;;;10.40;87.20;;;;;;5049364;28;20044;-45
2021/12/16 12:35:07;;;;;;;8.18;2.70;;;10.30;87.10;;;;;;5037875;28;20120;-45
2021/12/16 12:37:36;;;;;;;14.93;3.88;;;10.30;87.10;;;;;;5039558;28;20071;-47
2021/12/16 12:40:20;;;;;;;11.27;3.70;;;10.30;87.30;;;;;;5051210;28;20378;-47
2021/12/16 12:42:49;;;;;;;15.23;3.40;;;10.30;87.10;;;;;;5032717;28;20026;-46
2021/12/16 12:45:25;;;;;;;14.23;3.58;;;10.20;87.20;;;;;;5050319;28;20343;-45
2021/12/16 12:47:57;;;;;;;8.98;3.47;;;10.30;87.30;;;;;;5048005;28;20502;-47
2021/12/16 12:50:33;;;;;;;14.98;3.47;;;10.30;87.20;;;;;;5017924;28;20459;-45
2021/12/16 12:53:17;;;;;;;16.40;4.07;;;10.40;87.30;;;;;;5038625;28;20041;-46
2021/12/16 12:55:46;;;;;;;13.20;4.43;;;10.40;87.30;;;;;;5032342;28;20401;-48
2021/12/16 12:58:17;;;;;;;8.70;3.70;;;10.40;87.40;;;;;;5014997;28;20120;-49
2021/12/16 13:01:05;;;;;;;10.30;4.28;;;10.40;87.40;;;;;;5030893;28;20757;-48
2021/12/16 13:04:00;;;;;;;15.85;5.65;;;10.30;87.20;;;;;;5013616;28;20038;-48
2021/12/16 13:06:27;;;;;;;9.70;5.55;;;10.40;87.30;;;;;;5034323;28;20033;-48
2021/12/16 13:08:54;;;;;;;8.00;4.32;;;10.30;87.30;;;;;;5039776;28;20060;-48
2021/12/16 13:11:30;;;;;;;13.18;4.72;;;10.30;86.80;;;;;;5033344;28;20095;-49
2021/12/16 13:14:36;;;;;;;12.45;4.80;;;10.20;87.00;;;;;;5021729;28;20065;-49
2021/12/16 13:28:38;;;;;;;9.05;4.95;;;10.00;87.70;;;;;;5049458;28;20401;-46
2021/12/16 13:31:26;;;;;;;8.32;5.07;;;9.90;87.70;;;;;;5029867;28;20025;-49
2021/12/16 13:33:58;;;;;;;9.40;4.50;;;9.90;87.90;;;;;;5038865;28;20021;-49
2021/12/16 13:36:49;;;;;;;10.75;4.65;;;9.90;87.80;;;;;;5036213;28;20761;-48
2021/12/16 13:39:22;;;;;;;8.25;3.80;;;9.90;87.90;;;;;;5037861;28;20498;-45
2021/12/16 13:42:05;;;;;;;8.60;5.07;;;9.80;88.10;;;;;;5036981;28;20532;-46
2021/12/16 13:45:02;;;;;;;9.35;4.85;;;9.80;88.40;;;;;;5033630;28;20094;-49
2021/12/16 14:05:22;;;;;;;7.78;4.05;;;9.40;88.60;;;;;;5029689;28;19909;-46
2021/12/16 14:07:56;;;;;;;9.38;4.90;;;9.40;88.70;;;;;;5031590;28;20091;-46
2021/12/16 14:10:33;;;;;;;9.02;6.07;;;9.40;88.60;;;;;;5049641;28;20025;-49
2021/12/16 14:42:15;;;;;;;7.15;4.82;;;9.30;89.50;;;;;;5033332;28;20128;-48
2021/12/16 14:50:39;;;;;;;7.82;5.00;;;9.20;89.50;;;;;;5029362;28;20029;-46
2021/12/16 14:53:27;;;;;;;8.73;5.03;;;9.20;89.60;;;;;;5032983;28;20025;-46
2021/12/16 14:56:17;;;;;;;9.10;5.32;;;9.20;89.70;;;;;;5040347;28;20037;-45
2021/12/16 14:58:50;;;;;;;9.25;5.00;;;9.20;89.80;;;;;;5034753;28;20041;-45
2021/12/16 15:01:46;;;;;;;7.15;3.95;;;9.20;89.90;;;;;;5031252;28;20037;-47
2021/12/16 15:04:16;;;;;;;8.15;3.75;;;9.20;89.80;;;;;;5051285;28;20033;-45
2021/12/16 15:06:50;;;;;;;;;;;9.20;90.00;;;;;;5053427;28;20440;-46
2021/12/16 15:09:31;;;;;;;9.10;5.18;;;9.10;90.10;;;;;;5047971;28;19919;-48
2021/12/16 15:12:29;;;;;;;7.15;4.18;;;9.10;90.20;;;;;;5053243;28;20032;-46
2021/12/16 15:37:54;;;;;;;5.88;3.35;;;8.80;91.30;;;;;;5033444;28;20048;-46
2021/12/16 15:40:35;;;;;;;7.85;4.10;;;8.80;91.40;;;;;;5032178;28;20094;-48
2021/12/16 15:43:08;;;;;;;8.43;4.70;;;8.70;91.40;;;;;;5035467;28;20342;-45
2021/12/16 15:45:54;;;;;;;8.05;3.95;;;8.80;91.50;;;;;;5051565;28;20101;-46
2021/12/16 15:48:28;;;;;;;9.77;4.40;;;8.70;91.40;;;;;;5033864;28;20029;-44
2021/12/16 15:51:10;;;;;;;13.43;6.50;;;8.70;91.50;;;;;;5052151;28;20090;-47
2021/12/16 15:53:48;;;;;;;11.52;6.80;;;8.70;91.60;;;;;;5025931;28;20033;-46
2021/12/16 15:56:18;;;;;;;9.13;5.22;;;8.70;91.50;;;;;;5032209;28;20036;-46
2021/12/16 15:58:59;;;;;;;11.68;5.72;;;8.60;91.60;;;;;;5023410;28;20064;-45
2021/12/16 16:01:40;;;;;;;10.13;5.70;;;8.60;91.60;;;;;;5049694;28;20049;-45
2021/12/16 16:04:33;;;;;;;14.07;6.72;;;8.60;91.70;;;;;;5020196;28;20037;-44
2021/12/16 16:07:11;;;;;;;9.07;4.72;;;8.60;91.70;;;;;;5031789;28;20437;-46
2021/12/16 16:09:41;;;;;;;9.88;5.85;;;8.60;91.70;;;;;;5049858;28;20036;-48
2021/12/16 16:12:11;;;;;;;9.60;6.47;;;8.60;91.70;;;;;;5051564;28;20092;-46
2021/12/16 16:14:44;;;;;;;7.65;5.20;;;8.70;91.70;;;;;;5033389;28;20041;-48
2021/12/16 16:17:14;;;;;;;9.10;5.82;;;8.60;91.60;;;;;;5031042;28;20043;-48
2021/12/16 16:19:42;;;;;;;7.20;5.50;;;8.60;91.70;;;;;;5052001;28;20100;-45
2021/12/16 16:22:09;;;;;;;5.43;3.90;;;8.70;91.70;;;;;;5036059;28;20418;-44
2021/12/16 16:24:41;;;;;;;6.78;4.15;;;8.60;91.70;;;;;;5040047;28;20511;-43
2021/12/16 16:27:12;;;;;;;5.35;4.07;;;8.60;91.70;;;;;;5049283;28;20033;-48
2021/12/16 16:29:42;;;;;;;4.38;2.80;;;8.60;91.70;;;;;;5036985;28;20125;-49
2021/12/16 16:32:09;;;;;;;5.88;3.47;;;8.60;91.70;;;;;;5031420;28;20032;-43
2021/12/16 16:34:47;;;;;;;4.72;2.97;;;8.60;91.70;;;;;;5024068;28;20048;-44
2021/12/16 16:37:25;;;;;;;4.57;2.47;;;8.60;91.90;;;;;;5032219;28;20470;-44
2021/12/16 16:39:55;;;;;;;5.05;2.63;;;8.60;91.80;;;;;;5034395;28;20126;-44
2021/12/16 16:42:34;;;;;;;4.32;2.05;;;8.50;91.80;;;;;;5039591;28;20037;-47
2021/12/16 16:45:04;;;;;;;3.83;1.37;;;8.60;91.90;;;;;;5015101;28;20033;-48
2021/12/16 16:47:45;;;;;;;1.60;1.00;;;8.50;91.80;;;;;;5037973;28;20347;-44
2021/12/16 16:50:13;;;;;;;3.63;1.52;;;8.50;91.70;;;;;;5023892;28;20052;-45
2021/12/16 16:52:45;;;;;;;2.08;0.90;;;8.50;91.70;;;;;;5031519;28;20025;-46
2021/12/16 16:55:33;;;;;;;3.15;1.38;;;8.50;91.70;;;;;;5020248;28;20127;-42
2021/12/16 16:58:04;;;;;;;4.07;2.15;;;8.50;91.80;;;;;;5029863;28;20063;-45
2021/12/16 17:00:52;;;;;;;3.35;2.20;;;8.60;91.70;;;;;;5042394;28;20057;-44
2021/12/16 17:03:22;;;;;;;5.40;3.15;;;8.50;91.70;;;;;;5032362;28;20029;-44
2021/12/16 17:05:59;;;;;;;4.72;2.80;;;8.60;91.70;;;;;;5050729;28;20520;-45
2021/12/16 17:08:37;;;;;;;6.57;4.68;;;8.60;91.80;;;;;;5043244;28;20029;-49
2021/12/16 17:11:22;;;;;;;12.57;8.98;;;8.60;91.80;;;;;;5030820;28;20054;-49